Winton Post Office, Australia
Current Conditions -  °F | °C
As of 2:00 AM on Friday 31 Oct 2014 (Local Time) from YLRE Reporting Station
Clear Clear  
Wind Chill: 29°   Ceiling: Unl
Heat Index: 29°   Visibility: 6mi
Dew Point: 12°   Wind: 16mph
Humidity: 35%   Direction: 30°NNE
Pressure: 29.74"   Gusts: NA
Location:  22.38°S, 143.03°E
Report Text: YLRE 301600Z AUTO 03014KT 9999 // NCD 29/12 Q1007
Loading
Personal Weather Stations






























Interactive Weather Map
Tropical Storm Tracking
New forecast layout! Learn more

10-Day Weather Forecast

Advertisements
Track Severe Weather on mobile